Harrold, South Dakota
Current Conditions -  °F | °C
As of 6:53 PM on Saturday 25 Oct 2014 (Local Time) from KPIR Reporting Station
Clear Clear  
Wind Chill: 55°   Ceiling: Unl
Heat Index: 55°   Visibility: 10mi
Dew Point: 29°   Wind: 8mph
Humidity: 37%   Direction: 120°ESE
Pressure: 30.01"   Gusts: NA
Location:  44.52°N, 99.74°W
Report Text: KPIR 252353Z AUTO 12007KT 10SM CLR 13/M02 A3001 RMK AO2 SLP165 T01281017 10200 20128 56016
Loading
Personal Weather Stations






























Interactive Weather Map
Tropical Storm Tracking
New forecast layout! Learn more

10-Day Weather Forecast

Advertisements
Track Severe Weather on mobile